sensor_id;sensor_type;location;lat;lon;timestamp;pressure;altitude;pressure_sealevel;temperature;humidity
62928;BME280;51070;52.236;-0.892;2023-03-21T00:01:00;100292.96;;;9.85;100.00
62928;BME280;51070;52.236;-0.892;2023-03-21T00:03:30;100288.84;;;9.86;100.00
62928;BME280;51070;52.236;-0.892;2023-03-21T00:05:55;100292.84;;;9.87;100.00
62928;BME280;51070;52.236;-0.892;2023-03-21T00:08:23;100290.45;;;9.87;100.00
62928;BME280;51070;52.236;-0.892;2023-03-21T00:11:15;100287.00;;;9.88;100.00
62928;BME280;51070;52.236;-0.892;2023-03-21T00:13:41;100284.30;;;9.90;100.00
62928;BME280;51070;52.236;-0.892;2023-03-21T00:16:15;100285.56;;;9.92;100.00
62928;BME280;51070;52.236;-0.892;2023-03-21T00:18:46;100281.11;;;9.94;100.00
62928;BME280;51070;52.236;-0.892;2023-03-21T00:21:17;100277.65;;;9.93;100.00
62928;BME280;51070;52.236;-0.892;2023-03-21T00:23:44;100279.72;;;9.92;100.00
62928;BME280;51070;52.236;-0.892;2023-03-21T00:26:11;100273.11;;;9.91;100.00
62928;BME280;51070;52.236;-0.892;2023-03-21T00:28:40;100272.59;;;9.91;100.00
62928;BME280;51070;52.236;-0.892;2023-03-21T00:31:07;100269.27;;;9.90;100.00
62928;BME280;51070;52.236;-0.892;2023-03-21T00:33:33;100263.22;;;9.89;100.00
62928;BME280;51070;52.236;-0.892;2023-03-21T00:36:00;100267.70;;;9.89;100.00
62928;BME280;51070;52.236;-0.892;2023-03-21T00:38:26;100263.02;;;9.89;100.00
62928;BME280;51070;52.236;-0.892;2023-03-21T00:40:51;100257.52;;;9.90;100.00
62928;BME280;51070;52.236;-0.892;2023-03-21T00:43:17;100252.90;;;9.90;100.00
62928;BME280;51070;52.236;-0.892;2023-03-21T00:45:44;100248.02;;;9.90;100.00
62928;BME280;51070;52.236;-0.892;2023-03-21T00:48:11;100245.59;;;9.89;100.00
62928;BME280;51070;52.236;-0.892;2023-03-21T00:50:37;100241.41;;;9.87;100.00
62928;BME280;51070;52.236;-0.892;2023-03-21T00:53:04;100246.54;;;9.85;100.00
62928;BME280;51070;52.236;-0.892;2023-03-21T00:55:30;100239.40;;;9.83;100.00
62928;BME280;51070;52.236;-0.892;2023-03-21T00:57:56;100241.46;;;9.82;100.00
62928;BME280;51070;52.236;-0.892;2023-03-21T01:00:21;100237.98;;;9.81;100.00
62928;BME280;51070;52.236;-0.892;2023-03-21T01:02:47;100230.35;;;9.80;100.00
62928;BME280;51070;52.236;-0.892;2023-03-21T01:05:27;100231.04;;;9.80;100.00
62928;BME280;51070;52.236;-0.892;2023-03-21T01:08:13;100225.48;;;9.79;100.00
62928;BME280;51070;52.236;-0.892;2023-03-21T01:10:41;100228.00;;;9.76;100.00
62928;BME280;51070;52.236;-0.892;2023-03-21T01:13:08;100223.23;;;9.72;100.00
62928;BME280;51070;52.236;-0.892;2023-03-21T01:15:35;100218.50;;;9.69;100.00
62928;BME280;51070;52.236;-0.892;2023-03-21T01:18:00;100222.73;;;9.67;100.00
62928;BME280;51070;52.236;-0.892;2023-03-21T01:20:26;100217.04;;;9.66;100.00
62928;BME280;51070;52.236;-0.892;2023-03-21T01:22:52;100207.19;;;9.65;100.00
62928;BME280;51070;52.236;-0.892;2023-03-21T01:25:17;100202.67;;;9.64;100.00
62928;BME280;51070;52.236;-0.892;2023-03-21T01:27:43;100193.63;;;9.62;100.00
62928;BME280;51070;52.236;-0.892;2023-03-21T01:30:09;100185.83;;;9.60;100.00
62928;BME280;51070;52.236;-0.892;2023-03-21T01:32:35;100179.23;;;9.59;100.00
62928;BME280;51070;52.236;-0.892;2023-03-21T01:35:01;100170.52;;;9.56;100.00
62928;BME280;51070;52.236;-0.892;2023-03-21T01:37:26;100165.46;;;9.54;100.00
62928;BME280;51070;52.236;-0.892;2023-03-21T01:39:52;100165.73;;;9.52;100.00
62928;BME280;51070;52.236;-0.892;2023-03-21T01:42:17;100165.04;;;9.52;100.00
62928;BME280;51070;52.236;-0.892;2023-03-21T01:45:05;100166.59;;;9.51;100.00
62928;BME280;51070;52.236;-0.892;2023-03-21T01:47:31;100171.23;;;9.51;100.00
62928;BME280;51070;52.236;-0.892;2023-03-21T01:50:01;100170.17;;;9.50;100.00
62928;BME280;51070;52.236;-0.892;2023-03-21T01:52:32;100158.10;;;9.50;100.00
62928;BME280;51070;52.236;-0.892;2023-03-21T01:54:59;100151.02;;;9.50;100.00
62928;BME280;51070;52.236;-0.892;2023-03-21T01:57:32;100146.88;;;9.50;100.00
62928;BME280;51070;52.236;-0.892;2023-03-21T02:00:03;100150.69;;;9.49;100.00
62928;BME280;51070;52.236;-0.892;2023-03-21T02:02:39;100149.13;;;9.50;100.00
62928;BME280;51070;52.236;-0.892;2023-03-21T02:08:13;100134.96;;;9.49;100.00
62928;BME280;51070;52.236;-0.892;2023-03-21T02:10:41;100128.77;;;9.50;100.00
62928;BME280;51070;52.236;-0.892;2023-03-21T02:13:08;100127.05;;;9.50;100.00
62928;BME280;51070;52.236;-0.892;2023-03-21T02:15:42;100120.84;;;9.50;100.00
62928;BME280;51070;52.236;-0.892;2023-03-21T02:28:32;100102.09;;;9.52;100.00
62928;BME280;51070;52.236;-0.892;2023-03-21T02:38:54;100087.53;;;9.56;100.00
62928;BME280;51070;52.236;-0.892;2023-03-21T02:41:37;100084.11;;;9.57;100.00
62928;BME280;51070;52.236;-0.892;2023-03-21T02:44:18;100081.36;;;9.57;100.00
62928;BME280;51070;52.236;-0.892;2023-03-21T02:49:26;100071.71;;;9.57;100.00
62928;BME280;51070;52.236;-0.892;2023-03-21T02:51:56;100072.77;;;9.58;100.00
62928;BME280;51070;52.236;-0.892;2023-03-21T02:54:24;100059.09;;;9.57;100.00
62928;BME280;51070;52.236;-0.892;2023-03-21T02:56:52;100061.68;;;9.57;100.00
62928;BME280;51070;52.236;-0.892;2023-03-21T02:59:21;100056.66;;;9.56;100.00
62928;BME280;51070;52.236;-0.892;2023-03-21T03:01:50;100054.08;;;9.56;100.00
62928;BME280;51070;52.236;-0.892;2023-03-21T03:04:22;100053.39;;;9.56;100.00
62928;BME280;51070;52.236;-0.892;2023-03-21T03:12:47;100039.94;;;9.56;100.00
62928;BME280;51070;52.236;-0.892;2023-03-21T03:15:23;100043.72;;;9.55;100.00
62928;BME280;51070;52.236;-0.892;2023-03-21T03:20:59;100038.20;;;9.55;100.00
62928;BME280;51070;52.236;-0.892;2023-03-21T03:23:36;100032.85;;;9.55;100.00
62928;BME280;51070;52.236;-0.892;2023-03-21T03:26:20;100029.23;;;9.55;100.00
62928;BME280;51070;52.236;-0.892;2023-03-21T03:28:53;100028.71;;;9.56;100.00
62928;BME280;51070;52.236;-0.892;2023-03-21T03:31:31;100025.75;;;9.54;100.00
62928;BME280;51070;52.236;-0.892;2023-03-21T03:34:02;100021.58;;;9.53;100.00
62928;BME280;51070;52.236;-0.892;2023-03-21T03:36:35;100017.73;;;9.52;100.00
62928;BME280;51070;52.236;-0.892;2023-03-21T03:39:06;100025.30;;;9.50;100.00
62928;BME280;51070;52.236;-0.892;2023-03-21T03:41:39;100025.11;;;9.49;100.00
62928;BME280;51070;52.236;-0.892;2023-03-21T03:44:05;100023.34;;;9.48;100.00
62928;BME280;51070;52.236;-0.892;2023-03-21T03:46:35;100018.34;;;9.47;100.00
62928;BME280;51070;52.236;-0.892;2023-03-21T03:49:08;100017.98;;;9.47;100.00
62928;BME280;51070;52.236;-0.892;2023-03-21T03:52:01;100014.98;;;9.45;100.00
62928;BME280;51070;52.236;-0.892;2023-03-21T03:54:39;100014.77;;;9.43;100.00
62928;BME280;51070;52.236;-0.892;2023-03-21T03:57:06;100017.86;;;9.43;100.00
62928;BME280;51070;52.236;-0.892;2023-03-21T03:59:35;100018.70;;;9.42;100.00
62928;BME280;51070;52.236;-0.892;2023-03-21T04:02:01;100012.29;;;9.41;100.00
62928;BME280;51070;52.236;-0.892;2023-03-21T04:04:27;100008.83;;;9.41;100.00
62928;BME280;51070;52.236;-0.892;2023-03-21T04:06:53;100002.64;;;9.41;100.00
62928;BME280;51070;52.236;-0.892;2023-03-21T04:09:19;100004.36;;;9.41;100.00
62928;BME280;51070;52.236;-0.892;2023-03-21T04:11:44;99996.55;;;9.39;100.00
62928;BME280;51070;52.236;-0.892;2023-03-21T04:14:10;99990.52;;;9.38;100.00
62928;BME280;51070;52.236;-0.892;2023-03-21T04:16:36;99991.36;;;9.38;100.00
62928;BME280;51070;52.236;-0.892;2023-03-21T04:19:01;99991.70;;;9.38;100.00
62928;BME280;51070;52.236;-0.892;2023-03-21T04:21:26;99991.20;;;9.38;100.00
62928;BME280;51070;52.236;-0.892;2023-03-21T04:23:53;99984.46;;;9.38;100.00
62928;BME280;51070;52.236;-0.892;2023-03-21T04:26:21;99983.92;;;9.37;100.00
62928;BME280;51070;52.236;-0.892;2023-03-21T04:28:48;99983.20;;;9.36;100.00
62928;BME280;51070;52.236;-0.892;2023-03-21T04:31:14;99978.00;;;9.35;100.00
62928;BME280;51070;52.236;-0.892;2023-03-21T04:33:41;99980.26;;;9.35;100.00
62928;BME280;51070;52.236;-0.892;2023-03-21T04:36:07;99978.86;;;9.35;100.00
62928;BME280;51070;52.236;-0.892;2023-03-21T04:38:34;99973.15;;;9.34;100.00
62928;BME280;51070;52.236;-0.892;2023-03-21T04:41:01;99975.51;;;9.32;100.00
62928;BME280;51070;52.236;-0.892;2023-03-21T04:43:27;99973.90;;;9.30;100.00
62928;BME280;51070;52.236;-0.892;2023-03-21T04:45:53;99971.44;;;9.28;100.00
62928;BME280;51070;52.236;-0.892;2023-03-21T04:48:20;99971.02;;;9.25;100.00
62928;BME280;51070;52.236;-0.892;2023-03-21T04:50:49;99970.09;;;9.22;100.00
62928;BME280;51070;52.236;-0.892;2023-03-21T04:53:15;99964.85;;;9.20;100.00
62928;BME280;51070;52.236;-0.892;2023-03-21T04:55:41;99965.67;;;9.18;100.00
62928;BME280;51070;52.236;-0.892;2023-03-21T04:58:06;99962.22;;;9.18;100.00
62928;BME280;51070;52.236;-0.892;2023-03-21T05:00:32;99958.77;;;9.17;100.00
62928;BME280;51070;52.236;-0.892;2023-03-21T05:03:04;99951.35;;;9.17;100.00
62928;BME280;51070;52.236;-0.892;2023-03-21T05:05:34;99950.15;;;9.17;100.00
62928;BME280;51070;52.236;-0.892;2023-03-21T05:08:00;99940.63;;;9.16;100.00
62928;BME280;51070;52.236;-0.892;2023-03-21T05:10:26;99936.84;;;9.16;100.00
62928;BME280;51070;52.236;-0.892;2023-03-21T05:12:51;99936.66;;;9.15;100.00
62928;BME280;51070;52.236;-0.892;2023-03-21T05:15:17;99937.69;;;9.15;100.00
62928;BME280;51070;52.236;-0.892;2023-03-21T05:17:42;99932.52;;;9.15;100.00
62928;BME280;51070;52.236;-0.892;2023-03-21T05:20:09;99930.80;;;9.16;100.00
62928;BME280;51070;52.236;-0.892;2023-03-21T05:22:35;99923.76;;;9.16;100.00
62928;BME280;51070;52.236;-0.892;2023-03-21T05:25:08;99918.44;;;9.17;100.00
62928;BME280;51070;52.236;-0.892;2023-03-21T05:27:34;99917.57;;;9.18;100.00
62928;BME280;51070;52.236;-0.892;2023-03-21T05:32:27;99916.19;;;9.18;100.00
62928;BME280;51070;52.236;-0.892;2023-03-21T05:34:53;99926.02;;;9.18;100.00
62928;BME280;51070;52.236;-0.892;2023-03-21T05:37:18;99926.88;;;9.17;100.00
62928;BME280;51070;52.236;-0.892;2023-03-21T05:39:43;99926.69;;;9.16;100.00
62928;BME280;51070;52.236;-0.892;2023-03-21T05:42:09;99923.39;;;9.15;100.00
62928;BME280;51070;52.236;-0.892;2023-03-21T05:44:34;99916.63;;;9.15;100.00
62928;BME280;51070;52.236;-0.892;2023-03-21T05:47:00;99912.16;;;9.15;100.00
62928;BME280;51070;52.236;-0.892;2023-03-21T05:49:25;99913.73;;;9.15;100.00
62928;BME280;51070;52.236;-0.892;2023-03-21T05:51:51;99910.27;;;9.15;100.00
62928;BME280;51070;52.236;-0.892;2023-03-21T05:54:16;99911.97;;;9.14;100.00
62928;BME280;51070;52.236;-0.892;2023-03-21T05:56:42;99918.85;;;9.14;100.00
62928;BME280;51070;52.236;-0.892;2023-03-21T05:59:07;99918.51;;;9.14;100.00
62928;BME280;51070;52.236;-0.892;2023-03-21T06:01:33;99921.77;;;9.13;100.00
62928;BME280;51070;52.236;-0.892;2023-03-21T06:03:58;99913.16;;;9.14;100.00
62928;BME280;51070;52.236;-0.892;2023-03-21T06:06:24;99909.77;;;9.15;100.00
62928;BME280;51070;52.236;-0.892;2023-03-21T06:08:49;99908.21;;;9.16;100.00
62928;BME280;51070;52.236;-0.892;2023-03-21T06:11:26;99906.79;;;9.14;100.00
62928;BME280;51070;52.236;-0.892;2023-03-21T06:13:53;99913.69;;;9.14;100.00
62928;BME280;51070;52.236;-0.892;2023-03-21T06:16:18;99911.27;;;9.14;100.00
62928;BME280;51070;52.236;-0.892;2023-03-21T06:18:43;99908.17;;;9.14;100.00
62928;BME280;51070;52.236;-0.892;2023-03-21T06:21:09;99906.99;;;9.15;100.00
62928;BME280;51070;52.236;-0.892;2023-03-21T06:23:35;99912.52;;;9.15;100.00
62928;BME280;51070;52.236;-0.892;2023-03-21T06:26:02;99907.85;;;9.15;100.00
62928;BME280;51070;52.236;-0.892;2023-03-21T06:28:27;99906.64;;;9.15;100.00
62928;BME280;51070;52.236;-0.892;2023-03-21T06:30:52;99908.71;;;9.15;100.00
62928;BME280;51070;52.236;-0.892;2023-03-21T06:33:18;99911.69;;;9.17;100.00
62928;BME280;51070;52.236;-0.892;2023-03-21T06:35:43;99904.65;;;9.19;100.00
62928;BME280;51070;52.236;-0.892;2023-03-21T06:38:09;99902.16;;;9.21;100.00
62928;BME280;51070;52.236;-0.892;2023-03-21T06:40:37;99902.40;;;9.25;100.00
62928;BME280;51070;52.236;-0.892;2023-03-21T06:43:02;99904.50;;;9.26;100.00
62928;BME280;51070;52.236;-0.892;2023-03-21T06:45:28;99909.54;;;9.27;100.00
62928;BME280;51070;52.236;-0.892;2023-03-21T06:47:53;99910.97;;;9.30;100.00
62928;BME280;51070;52.236;-0.892;2023-03-21T06:50:18;99913.95;;;9.32;100.00
62928;BME280;51070;52.236;-0.892;2023-03-21T06:52:44;99909.20;;;9.35;100.00
62928;BME280;51070;52.236;-0.892;2023-03-21T06:55:10;99907.92;;;9.39;100.00
62928;BME280;51070;52.236;-0.892;2023-03-21T06:57:35;99909.33;;;9.41;100.00
62928;BME280;51070;52.236;-0.892;2023-03-21T07:00:02;99905.04;;;9.41;100.00
62928;BME280;51070;52.236;-0.892;2023-03-21T07:02:29;99897.80;;;9.41;100.00
62928;BME280;51070;52.236;-0.892;2023-03-21T07:04:55;99896.77;;;9.41;100.00
62928;BME280;51070;52.236;-0.892;2023-03-21T07:07:24;99893.01;;;9.43;100.00
62928;BME280;51070;52.236;-0.892;2023-03-21T07:09:50;99894.59;;;9.44;100.00
62928;BME280;51070;52.236;-0.892;2023-03-21T07:12:16;99899.08;;;9.45;100.00
62928;BME280;51070;52.236;-0.892;2023-03-21T07:14:41;99900.83;;;9.45;100.00
62928;BME280;51070;52.236;-0.892;2023-03-21T07:17:07;99899.98;;;9.46;100.00
62928;BME280;51070;52.236;-0.892;2023-03-21T07:19:32;99899.48;;;9.47;100.00
62928;BME280;51070;52.236;-0.892;2023-03-21T07:21:57;99894.72;;;9.49;100.00
62928;BME280;51070;52.236;-0.892;2023-03-21T07:24:24;99895.30;;;9.52;100.00
62928;BME280;51070;52.236;-0.892;2023-03-21T07:26:50;99894.36;;;9.56;100.00
62928;BME280;51070;52.236;-0.892;2023-03-21T07:29:15;99891.52;;;9.60;100.00
62928;BME280;51070;52.236;-0.892;2023-03-21T07:31:41;99890.70;;;9.62;100.00
62928;BME280;51070;52.236;-0.892;2023-03-21T07:34:07;99888.52;;;9.64;100.00
62928;BME280;51070;52.236;-0.892;2023-03-21T07:36:32;99887.66;;;9.65;100.00
62928;BME280;51070;52.236;-0.892;2023-03-21T07:38:57;99876.35;;;9.68;100.00
62928;BME280;51070;52.236;-0.892;2023-03-21T07:41:23;99875.56;;;9.80;100.00
62928;BME280;51070;52.236;-0.892;2023-03-21T07:43:48;99879.75;;;9.98;100.00
62928;BME280;51070;52.236;-0.892;2023-03-21T07:46:13;99884.91;;;10.05;100.00
62928;BME280;51070;52.236;-0.892;2023-03-21T07:48:39;99880.90;;;10.03;100.00
62928;BME280;51070;52.236;-0.892;2023-03-21T07:51:05;99878.04;;;9.98;100.00
62928;BME280;51070;52.236;-0.892;2023-03-21T07:53:31;99878.73;;;9.98;100.00
62928;BME280;51070;52.236;-0.892;2023-03-21T07:55:56;99872.77;;;10.02;100.00
62928;BME280;51070;52.236;-0.892;2023-03-21T07:58:23;99876.40;;;10.11;100.00
62928;BME280;51070;52.236;-0.892;2023-03-21T08:00:48;99882.31;;;10.13;100.00
62928;BME280;51070;52.236;-0.892;2023-03-21T08:03:14;99889.17;;;10.11;100.00
62928;BME280;51070;52.236;-0.892;2023-03-21T08:05:40;99888.67;;;10.12;100.00
62928;BME280;51070;52.236;-0.892;2023-03-21T08:08:06;99890.66;;;10.23;100.00
62928;BME280;51070;52.236;-0.892;2023-03-21T08:10:32;99896.02;;;10.32;100.00
62928;BME280;51070;52.236;-0.892;2023-03-21T08:12:58;99893.69;;;10.36;100.00
62928;BME280;51070;52.236;-0.892;2023-03-21T08:15:23;99893.17;;;10.45;100.00
62928;BME280;51070;52.236;-0.892;2023-03-21T08:17:49;99893.71;;;10.55;100.00
62928;BME280;51070;52.236;-0.892;2023-03-21T08:20:18;99892.18;;;10.65;100.00
62928;BME280;51070;52.236;-0.892;2023-03-21T08:22:46;99889.03;;;10.73;100.00
62928;BME280;51070;52.236;-0.892;2023-03-21T08:25:14;99885.98;;;10.86;100.00
62928;BME280;51070;52.236;-0.892;2023-03-21T08:27:41;99885.27;;;10.94;100.00
62928;BME280;51070;52.236;-0.892;2023-03-21T08:30:09;99883.70;;;11.04;100.00
62928;BME280;51070;52.236;-0.892;2023-03-21T08:32:37;99880.36;;;11.21;99.64
62928;BME280;51070;52.236;-0.892;2023-03-21T08:35:05;99882.42;;;11.43;98.82
62928;BME280;51070;52.236;-0.892;2023-03-21T08:37:35;99882.46;;;11.57;97.77
62928;BME280;51070;52.236;-0.892;2023-03-21T08:40:01;99872.28;;;11.80;96.54
62928;BME280;51070;52.236;-0.892;2023-03-21T08:42:28;99866.59;;;11.81;95.72
62928;BME280;51070;52.236;-0.892;2023-03-21T08:44:53;99851.26;;;11.87;96.09
62928;BME280;51070;52.236;-0.892;2023-03-21T08:47:18;99841.55;;;12.13;95.61
62928;BME280;51070;52.236;-0.892;2023-03-21T08:49:44;99846.83;;;12.53;93.91
62928;BME280;51070;52.236;-0.892;2023-03-21T08:52:12;99844.04;;;13.04;89.59
62928;BME280;51070;52.236;-0.892;2023-03-21T08:54:37;99837.91;;;13.40;87.79
62928;BME280;51070;52.236;-0.892;2023-03-21T08:57:04;99840.74;;;13.48;87.16
62928;BME280;51070;52.236;-0.892;2023-03-21T08:59:29;99836.79;;;13.30;84.92
62928;BME280;51070;52.236;-0.892;2023-03-21T09:01:55;99846.48;;;13.08;86.73
62928;BME280;51070;52.236;-0.892;2023-03-21T09:04:20;99847.59;;;12.76;87.25
62928;BME280;51070;52.236;-0.892;2023-03-21T09:06:46;99856.63;;;12.44;88.56
62928;BME280;51070;52.236;-0.892;2023-03-21T09:09:13;99857.83;;;12.14;89.60
62928;BME280;51070;52.236;-0.892;2023-03-21T09:11:40;99850.53;;;11.98;91.24
62928;BME280;51070;52.236;-0.892;2023-03-21T09:14:05;99854.73;;;11.88;92.20
62928;BME280;51070;52.236;-0.892;2023-03-21T09:16:31;99858.23;;;11.77;93.20
62928;BME280;51070;52.236;-0.892;2023-03-21T09:18:56;99865.66;;;11.67;93.81
62928;BME280;51070;52.236;-0.892;2023-03-21T09:21:25;99863.63;;;11.59;95.10
62928;BME280;51070;52.236;-0.892;2023-03-21T09:23:53;99866.13;;;11.52;96.32
62928;BME280;51070;52.236;-0.892;2023-03-21T09:26:21;99877.53;;;11.39;97.73
62928;BME280;51070;52.236;-0.892;2023-03-21T09:28:48;99875.86;;;11.32;98.75
62928;BME280;51070;52.236;-0.892;2023-03-21T09:31:15;99868.20;;;11.40;99.26
62928;BME280;51070;52.236;-0.892;2023-03-21T09:33:50;99855.30;;;11.57;98.88
62928;BME280;51070;52.236;-0.892;2023-03-21T09:36:16;99856.12;;;11.65;98.38
62928;BME280;51070;52.236;-0.892;2023-03-21T09:38:44;99858.89;;;11.66;98.87
62928;BME280;51070;52.236;-0.892;2023-03-21T09:46:49;99854.10;;;11.69;100.00
62928;BME280;51070;52.236;-0.892;2023-03-21T09:49:29;99845.77;;;11.79;100.00
62928;BME280;51070;52.236;-0.892;2023-03-21T09:52:03;99837.86;;;12.24;98.83
62928;BME280;51070;52.236;-0.892;2023-03-21T09:54:41;99830.90;;;12.71;96.13
62928;BME280;51070;52.236;-0.892;2023-03-21T09:59:58;99819.91;;;13.83;90.27
62928;BME280;51070;52.236;-0.892;2023-03-21T10:02:43;99824.42;;;14.25;86.30
62928;BME280;51070;52.236;-0.892;2023-03-21T10:05:16;99822.50;;;14.20;84.99
62928;BME280;51070;52.236;-0.892;2023-03-21T10:07:50;99813.27;;;14.71;84.40
62928;BME280;51070;52.236;-0.892;2023-03-21T10:10:22;99806.48;;;14.82;82.94
62928;BME280;51070;52.236;-0.892;2023-03-21T10:12:51;99806.82;;;14.74;80.23
62928;BME280;51070;52.236;-0.892;2023-03-21T10:15:20;99793.74;;;14.44;80.96
62928;BME280;51070;52.236;-0.892;2023-03-21T10:17:51;99791.34;;;14.90;80.52
62928;BME280;51070;52.236;-0.892;2023-03-21T10:20:21;99795.86;;;14.95;77.56
62928;BME280;51070;52.236;-0.892;2023-03-21T10:22:49;99795.00;;;14.78;77.72
62928;BME280;51070;52.236;-0.892;2023-03-21T10:25:19;99791.51;;;14.61;78.98
62928;BME280;51070;52.236;-0.892;2023-03-21T10:27:47;99786.78;;;14.42;78.53
62928;BME280;51070;52.236;-0.892;2023-03-21T10:30:35;99789.65;;;14.17;79.52
62928;BME280;51070;52.236;-0.892;2023-03-21T10:33:04;99783.99;;;13.91;81.19
62928;BME280;51070;52.236;-0.892;2023-03-21T10:35:34;99787.86;;;13.99;81.13
62928;BME280;51070;52.236;-0.892;2023-03-21T10:38:04;99788.80;;;14.25;79.82
62928;BME280;51070;52.236;-0.892;2023-03-21T10:40:30;99786.55;;;14.30;80.46
62928;BME280;51070;52.236;-0.892;2023-03-21T10:43:15;99787.52;;;14.67;79.83
62928;BME280;51070;52.236;-0.892;2023-03-21T10:45:44;99788.52;;;15.37;76.28
62928;BME280;51070;52.236;-0.892;2023-03-21T10:48:10;99792.39;;;15.09;75.85
62928;BME280;51070;52.236;-0.892;2023-03-21T10:50:36;99792.38;;;14.92;76.89
62928;BME280;51070;52.236;-0.892;2023-03-21T10:53:02;99797.44;;;14.79;76.45
62928;BME280;51070;52.236;-0.892;2023-03-21T10:55:33;99786.48;;;14.65;77.21
62928;BME280;51070;52.236;-0.892;2023-03-21T10:58:02;99780.73;;;14.55;78.26
62928;BME280;51070;52.236;-0.892;2023-03-21T11:00:54;99770.46;;;14.49;78.81
62928;BME280;51070;52.236;-0.892;2023-03-21T11:03:54;99770.77;;;14.36;78.56
62928;BME280;51070;52.236;-0.892;2023-03-21T11:08:50;99777.09;;;14.02;80.63
62928;BME280;51070;52.236;-0.892;2023-03-21T11:11:27;99782.33;;;14.08;80.90
62928;BME280;51070;52.236;-0.892;2023-03-21T11:13:59;99778.59;;;14.40;80.81
62928;BME280;51070;52.236;-0.892;2023-03-21T11:16:40;99773.08;;;14.87;80.69
62928;BME280;51070;52.236;-0.892;2023-03-21T11:19:32;99759.62;;;15.34;78.53
62928;BME280;51070;52.236;-0.892;2023-03-21T11:22:05;99762.33;;;15.74;75.38
62928;BME280;51070;52.236;-0.892;2023-03-21T11:24:32;99763.12;;;15.92;70.12
62928;BME280;51070;52.236;-0.892;2023-03-21T11:26:59;99762.36;;;16.03;69.86
62928;BME280;51070;52.236;-0.892;2023-03-21T11:29:32;99762.25;;;16.20;70.06
62928;BME280;51070;52.236;-0.892;2023-03-21T11:34:50;99762.28;;;16.45;66.42
62928;BME280;51070;52.236;-0.892;2023-03-21T11:40:31;99776.48;;;16.60;64.63
62928;BME280;51070;52.236;-0.892;2023-03-21T11:42:58;99780.20;;;16.99;63.21
62928;BME280;51070;52.236;-0.892;2023-03-21T11:45:25;99786.45;;;17.22;62.39
62928;BME280;51070;52.236;-0.892;2023-03-21T11:47:57;99783.64;;;17.26;60.48
62928;BME280;51070;52.236;-0.892;2023-03-21T11:50:35;99784.41;;;17.35;59.91
62928;BME280;51070;52.236;-0.892;2023-03-21T12:01:23;99786.70;;;16.72;61.47
62928;BME280;51070;52.236;-0.892;2023-03-21T12:04:02;99779.82;;;16.31;62.39
62928;BME280;51070;52.236;-0.892;2023-03-21T12:06:52;99776.93;;;16.15;64.10
62928;BME280;51070;52.236;-0.892;2023-03-21T12:22:55;99755.95;;;15.95;63.32
62928;BME280;51070;52.236;-0.892;2023-03-21T12:25:31;99755.66;;;15.82;62.53
62928;BME280;51070;52.236;-0.892;2023-03-21T12:28:18;99757.59;;;15.80;62.05
62928;BME280;51070;52.236;-0.892;2023-03-21T12:34:18;99752.77;;;16.04;60.87
62928;BME280;51070;52.236;-0.892;2023-03-21T12:36:59;99752.16;;;16.19;60.06
62928;BME280;51070;52.236;-0.892;2023-03-21T12:39:39;99754.09;;;16.15;58.93
62928;BME280;51070;52.236;-0.892;2023-03-21T12:42:35;99753.77;;;16.12;58.93
62928;BME280;51070;52.236;-0.892;2023-03-21T12:44:59;99747.44;;;16.21;58.20
62928;BME280;51070;52.236;-0.892;2023-03-21T12:47:29;99742.98;;;16.37;58.84
62928;BME280;51070;52.236;-0.892;2023-03-21T12:50:11;99732.35;;;16.62;58.92
62928;BME280;51070;52.236;-0.892;2023-03-21T12:52:41;99735.85;;;16.62;58.40
62928;BME280;51070;52.236;-0.892;2023-03-21T12:58:02;99722.60;;;16.33;58.04
62928;BME280;51070;52.236;-0.892;2023-03-21T13:00:42;99724.63;;;16.19;59.10
62928;BME280;51070;52.236;-0.892;2023-03-21T13:03:17;99725.73;;;16.08;59.28
62928;BME280;51070;52.236;-0.892;2023-03-21T13:06:09;99719.82;;;16.08;58.98
62928;BME280;51070;52.236;-0.892;2023-03-21T13:11:46;99714.52;;;16.16;59.40
62928;BME280;51070;52.236;-0.892;2023-03-21T13:14:29;99701.27;;;16.43;57.75
62928;BME280;51070;52.236;-0.892;2023-03-21T13:17:03;99704.10;;;16.63;57.31
62928;BME280;51070;52.236;-0.892;2023-03-21T13:19:38;99706.13;;;16.71;56.61
62928;BME280;51070;52.236;-0.892;2023-03-21T13:22:32;99701.67;;;16.57;56.86
62928;BME280;51070;52.236;-0.892;2023-03-21T13:25:05;99706.63;;;16.49;58.12
62928;BME280;51070;52.236;-0.892;2023-03-21T13:27:36;99705.69;;;16.59;58.04
62928;BME280;51070;52.236;-0.892;2023-03-21T13:30:18;99718.04;;;16.64;56.95
62928;BME280;51070;52.236;-0.892;2023-03-21T13:32:47;99717.95;;;16.50;56.55
62928;BME280;51070;52.236;-0.892;2023-03-21T13:35:33;99715.90;;;16.20;57.72
62928;BME280;51070;52.236;-0.892;2023-03-21T13:40:47;99716.52;;;16.06;59.22
62928;BME280;51070;52.236;-0.892;2023-03-21T13:51:51;99719.67;;;16.29;59.79
62928;BME280;51070;52.236;-0.892;2023-03-21T13:56:58;99697.83;;;16.35;58.41
62928;BME280;51070;52.236;-0.892;2023-03-21T14:04:34;99700.39;;;16.68;60.14
62928;BME280;51070;52.236;-0.892;2023-03-21T14:07:18;99704.23;;;16.68;59.87
62928;BME280;51070;52.236;-0.892;2023-03-21T14:09:51;99702.23;;;16.53;58.77
62928;BME280;51070;52.236;-0.892;2023-03-21T14:12:19;99708.30;;;16.35;57.74
62928;BME280;51070;52.236;-0.892;2023-03-21T14:14:58;99705.40;;;16.26;57.41
62928;BME280;51070;52.236;-0.892;2023-03-21T14:17:29;99713.30;;;16.18;56.28
62928;BME280;51070;52.236;-0.892;2023-03-21T14:19:59;99717.57;;;16.03;56.57
62928;BME280;51070;52.236;-0.892;2023-03-21T14:22:26;99721.96;;;15.96;55.87
62928;BME280;51070;52.236;-0.892;2023-03-21T14:24:58;99719.25;;;15.84;55.73
62928;BME280;51070;52.236;-0.892;2023-03-21T14:27:28;99727.94;;;15.90;55.56
62928;BME280;51070;52.236;-0.892;2023-03-21T14:29:55;99730.83;;;16.00;54.74
62928;BME280;51070;52.236;-0.892;2023-03-21T14:32:24;99733.06;;;16.06;53.28
62928;BME280;51070;52.236;-0.892;2023-03-21T14:34:51;99730.07;;;16.12;53.20
62928;BME280;51070;52.236;-0.892;2023-03-21T14:37:31;99738.05;;;16.15;52.20
62928;BME280;51070;52.236;-0.892;2023-03-21T14:39:59;99731.76;;;16.20;52.51
62928;BME280;51070;52.236;-0.892;2023-03-21T14:42:25;99732.33;;;16.11;52.92